createdAt,value
2019-02-26T00:01:39.478Z,20.97
2019-02-26T00:03:14.225Z,25.65
2019-02-26T00:04:49.941Z,21.85
2019-02-26T00:06:25.378Z,24.47
2019-02-26T00:08:02.684Z,25.15
2019-02-26T00:09:37.213Z,27.00
2019-02-26T00:11:11.584Z,23.47
2019-02-26T00:12:45.994Z,21.65
2019-02-26T00:14:22.405Z,20.40
2019-02-26T00:15:57.015Z,23.25
2019-02-26T00:17:36.065Z,22.10
2019-02-26T00:19:09.631Z,22.40
2019-02-26T00:20:44.024Z,21.07
2019-02-26T00:22:18.403Z,22.67
2019-02-26T00:23:53.185Z,26.12
2019-02-26T00:25:27.996Z,20.37
2019-02-26T00:27:03.792Z,21.65
2019-02-26T00:28:39.886Z,22.60
2019-02-26T00:30:16.651Z,23.65
2019-02-26T00:31:52.917Z,23.80
2019-02-26T00:33:28.982Z,23.12
2019-02-26T00:35:04.302Z,22.55
2019-02-26T00:36:39.284Z,24.80
2019-02-26T00:38:15.554Z,21.50
2019-02-26T00:39:51.696Z,18.48
2019-02-26T00:41:26.924Z,21.25
2019-02-26T00:43:04.794Z,19.80
2019-02-26T00:44:38.867Z,22.07
2019-02-26T00:46:13.246Z,21.85
2019-02-26T00:47:47.637Z,23.27
2019-02-26T00:49:23.551Z,21.07
2019-02-26T00:50:59.433Z,23.60
2019-02-26T00:52:36.635Z,20.15
2019-02-26T00:54:10.770Z,24.90
2019-02-26T00:55:45.263Z,20.65
2019-02-26T00:57:20.019Z,20.17
2019-02-26T00:58:54.393Z,23.12
2019-02-26T01:00:30.757Z,20.45
2019-02-26T01:02:05.178Z,24.43
2019-02-26T01:03:40.776Z,21.25
2019-02-26T01:05:16.829Z,24.63
2019-02-26T01:06:51.630Z,23.40
2019-02-26T01:08:26.001Z,23.40
2019-02-26T01:10:00.447Z,20.62
2019-02-26T01:11:34.927Z,22.65
2019-02-26T01:13:09.590Z,23.27
2019-02-26T01:14:46.336Z,23.02
2019-02-26T01:16:20.862Z,19.30
2019-02-26T01:17:57.133Z,26.35
2019-02-26T01:19:34.162Z,24.45
2019-02-26T01:21:09.639Z,23.85
2019-02-26T01:22:45.352Z,23.52
2019-02-26T01:24:21.425Z,25.45
2019-02-26T01:25:56.810Z,24.47
2019-02-26T01:27:31.504Z,24.82
2019-02-26T01:29:06.418Z,23.98
2019-02-26T01:30:41.119Z,25.12
2019-02-26T01:32:16.081Z,24.57
2019-02-26T01:33:52.986Z,21.50
2019-02-26T01:35:28.997Z,24.05
2019-02-26T01:37:06.058Z,24.92
2019-02-26T01:38:41.668Z,24.55
2019-02-26T01:40:21.025Z,23.38
2019-02-26T01:41:55.997Z,24.75
2019-02-26T01:43:29.257Z,25.85
2019-02-26T01:45:03.990Z,23.00
2019-02-26T01:46:38.903Z,24.05
2019-02-26T01:48:16.748Z,21.77
2019-02-26T01:49:51.350Z,26.57
2019-02-26T01:51:28.425Z,22.65
2019-02-26T01:53:02.225Z,23.85
2019-02-26T01:54:37.463Z,18.45
2019-02-26T01:56:13.195Z,25.60
2019-02-26T01:57:48.006Z,22.80
2019-02-26T01:59:22.698Z,22.30
2019-02-26T02:00:57.081Z,25.32
2019-02-26T02:02:31.907Z,25.20
2019-02-26T03:46:29.465Z,24.77
2019-02-26T03:48:03.949Z,24.02
2019-02-26T03:49:41.712Z,24.47
2019-02-26T03:51:17.198Z,26.70
2019-02-26T03:52:51.046Z,27.90
2019-02-26T03:54:25.431Z,25.52
2019-02-26T03:56:04.230Z,29.12
2019-02-26T03:57:41.079Z,33.98
2019-02-26T03:59:12.786Z,30.40
2019-02-26T04:00:47.318Z,26.93
2019-02-26T04:02:23.488Z,29.98
2019-02-26T04:03:59.872Z,27.32
2019-02-26T04:05:34.550Z,22.73
2019-02-26T04:07:10.668Z,27.35
2019-02-26T04:08:48.032Z,26.87
2019-02-26T04:10:21.838Z,32.20
2019-02-26T04:11:56.397Z,24.82
2019-02-26T04:13:30.778Z,26.45
2019-02-26T04:15:06.457Z,24.37
2019-02-26T04:16:43.616Z,24.92
2019-02-26T04:18:19.258Z,23.87
2019-02-26T04:19:53.898Z,22.93
2019-02-26T04:22:05.198Z,24.60
2019-02-26T04:23:42.116Z,23.00
2019-02-26T04:25:38.798Z,22.67
2019-02-26T04:27:44.234Z,23.80
2019-02-26T04:29:35.400Z,26.42
2019-02-26T04:31:52.156Z,25.40
2019-02-26T04:34:08.685Z,26.55
2019-02-26T04:36:02.649Z,28.70
2019-02-26T04:38:13.397Z,25.02
2019-02-26T04:40:17.800Z,22.25
2019-02-26T04:42:05.578Z,23.77
2019-02-26T04:44:14.541Z,27.13
2019-02-26T04:46:13.645Z,26.02
2019-02-26T04:47:51.425Z,27.17
2019-02-26T04:49:27.047Z,25.20
2019-02-26T04:51:01.246Z,26.85
2019-02-26T04:52:37.779Z,28.70
2019-02-26T04:54:17.315Z,28.90
2019-02-26T04:55:48.310Z,25.37
2019-02-26T04:57:23.311Z,30.90
2019-02-26T04:58:57.908Z,28.32
2019-02-26T05:00:35.906Z,24.35
2019-02-26T05:02:09.313Z,26.40
2019-02-26T05:03:44.034Z,23.12
2019-02-26T05:05:18.405Z,25.72
2019-02-26T05:06:53.189Z,25.60
2019-02-26T05:08:29.380Z,26.37
2019-02-26T05:10:03.758Z,25.43
2019-02-26T05:11:40.649Z,25.52
2019-02-26T05:13:14.913Z,24.25
2019-02-26T05:14:49.309Z,28.67
2019-02-26T05:16:26.065Z,28.80
2019-02-26T05:17:59.830Z,29.32
2019-02-26T05:19:36.371Z,28.42
2019-02-26T05:21:12.893Z,26.97
2019-02-26T05:22:46.754Z,24.92
2019-02-26T05:24:21.822Z,26.52
2019-02-26T05:26:02.959Z,26.50
2019-02-26T05:27:36.146Z,30.30
2019-02-26T05:29:14.721Z,29.18
2019-02-26T05:30:51.336Z,26.52
2019-02-26T05:32:29.350Z,26.97
2019-02-26T05:34:02.605Z,25.45
2019-02-26T05:35:38.747Z,25.37
2019-02-26T05:37:14.083Z,30.62
2019-02-26T05:38:49.750Z,22.22
2019-02-26T05:40:25.668Z,28.87
2019-02-26T05:42:01.328Z,26.30
2019-02-26T05:43:39.952Z,25.12
2019-02-26T05:45:15.146Z,29.77
2019-02-26T05:46:53.018Z,27.87
2019-02-26T05:48:27.062Z,25.30
2019-02-26T05:50:02.701Z,26.85
2019-02-26T05:51:38.610Z,28.05
2019-02-26T05:53:13.659Z,28.32
2019-02-26T05:54:48.719Z,29.20
2019-02-26T05:56:23.542Z,23.35
2019-02-26T05:57:58.047Z,28.52
2019-02-26T05:59:32.657Z,30.15
2019-02-26T06:01:07.220Z,30.12
2019-02-26T06:02:44.240Z,30.95
2019-02-26T06:04:20.647Z,30.95
2019-02-26T06:05:55.524Z,30.92
2019-02-26T06:07:33.632Z,31.12
2019-02-26T06:09:07.666Z,27.45
2019-02-26T06:10:42.876Z,32.83
2019-02-26T06:12:17.251Z,28.15
2019-02-26T06:13:51.612Z,30.50
2019-02-26T06:15:28.800Z,28.80
2019-02-26T06:17:02.699Z,28.65
2019-02-26T06:18:41.159Z,28.05
2019-02-26T06:20:19.026Z,29.37
2019-02-26T06:21:54.815Z,27.35
2019-02-26T06:23:31.721Z,30.45
2019-02-26T06:25:14.082Z,27.75
2019-02-26T06:26:45.852Z,28.10
2019-02-26T06:28:20.715Z,29.72
2019-02-26T06:29:57.236Z,30.20
2019-02-26T06:31:31.963Z,29.18
2019-02-26T06:33:09.122Z,26.20
2019-02-26T06:34:43.178Z,25.35
2019-02-26T06:36:19.238Z,26.77
2019-02-26T06:37:54.236Z,25.57
2019-02-26T06:39:29.832Z,29.55
2019-02-26T06:41:05.577Z,26.20
2019-02-26T06:42:40.388Z,25.20
2019-02-26T06:44:15.334Z,25.57
2019-02-26T06:45:49.697Z,22.40
2019-02-26T06:47:27.987Z,25.32
2019-02-26T06:49:00.588Z,23.25
2019-02-26T06:50:36.807Z,26.93
2019-02-26T06:52:13.542Z,23.10
2019-02-26T06:53:51.684Z,21.90
2019-02-26T06:55:26.069Z,25.35
2019-02-26T06:57:00.788Z,21.37
2019-02-26T06:58:36.214Z,23.67
2019-02-26T07:00:12.815Z,23.47
2019-02-26T07:01:47.208Z,23.67
2019-02-26T07:03:24.170Z,25.32
2019-02-26T07:04:58.066Z,23.50
2019-02-26T07:06:33.159Z,21.40
2019-02-26T07:08:08.636Z,23.15
2019-02-26T07:09:43.933Z,24.52
2019-02-26T07:11:18.912Z,24.75
2019-02-26T07:12:53.737Z,25.70
2019-02-26T07:14:30.231Z,22.25
2019-02-26T07:16:05.668Z,20.32
2019-02-26T07:17:42.528Z,24.75
2019-02-26T07:19:17.368Z,21.20
2019-02-26T07:20:55.026Z,23.15
2019-02-26T07:22:29.972Z,24.82
2019-02-26T07:24:04.809Z,23.47
2019-02-26T07:25:42.163Z,21.73
2019-02-26T07:27:16.144Z,24.63
2019-02-26T07:28:51.196Z,24.25
2019-02-26T07:30:25.997Z,22.37
2019-02-26T07:32:00.786Z,24.85
2019-02-26T07:33:37.811Z,23.35
2019-02-26T07:35:16.027Z,26.55
2019-02-26T07:36:50.666Z,30.97
2019-02-26T07:38:27.565Z,28.62
2019-02-26T07:40:03.755Z,28.42
2019-02-26T07:41:38.662Z,30.75
2019-02-26T07:43:15.423Z,26.75
2019-02-26T07:44:49.161Z,27.00
2019-02-26T07:46:23.643Z,35.33
2019-02-26T07:47:59.088Z,28.67
2019-02-26T07:49:34.718Z,26.48
2019-02-26T07:51:09.089Z,25.27
2019-02-26T07:52:43.482Z,26.97
2019-02-26T07:54:17.904Z,31.10
2019-02-26T07:55:52.384Z,26.67
2019-02-26T07:57:27.645Z,23.20
2019-02-26T07:59:06.803Z,26.20
2019-02-26T08:00:40.359Z,24.60
2019-02-26T08:02:15.318Z,27.67
2019-02-26T08:03:51.512Z,23.33
2019-02-26T08:05:26.802Z,21.93
2019-02-26T08:07:03.743Z,25.53
2019-02-26T08:08:40.159Z,21.03
2019-02-26T08:10:19.273Z,22.73
2019-02-26T08:11:53.814Z,21.30
2019-02-26T08:13:29.891Z,21.13
2019-02-26T08:15:08.566Z,22.17
2019-02-26T08:16:43.319Z,22.10
2019-02-26T08:18:18.110Z,25.27
2019-02-26T08:19:54.467Z,24.00
2019-02-26T08:21:29.746Z,24.73
2019-02-26T08:23:04.628Z,20.83
2019-02-26T08:24:39.671Z,22.10
2019-02-26T08:26:15.520Z,23.23
2019-02-26T08:27:52.134Z,23.00
2019-02-26T08:29:29.021Z,19.13
2019-02-26T08:31:05.348Z,22.50
2019-02-26T08:32:39.911Z,18.73
2019-02-26T08:34:15.780Z,19.87
2019-02-26T08:35:50.285Z,21.10
2019-02-26T08:37:24.773Z,22.03
2019-02-26T08:38:59.279Z,21.27
2019-02-26T08:40:33.768Z,23.17
2019-02-26T08:42:09.647Z,21.40
2019-02-26T08:43:46.547Z,22.67
2019-02-26T08:45:23.126Z,22.50
2019-02-26T08:46:57.044Z,23.43
2019-02-26T08:48:31.473Z,23.17
2019-02-26T08:50:09.422Z,23.47
2019-02-26T08:51:43.056Z,21.80
2019-02-26T08:53:17.454Z,21.67
2019-02-26T08:54:52.014Z,19.70
2019-02-26T08:56:28.297Z,21.97
2019-02-26T08:58:02.456Z,23.97
2019-02-26T08:59:37.214Z,21.47
2019-02-26T09:01:12.324Z,20.73
2019-02-26T09:02:50.551Z,25.00
2019-02-26T09:04:24.151Z,21.47
2019-02-26T09:06:12.413Z,25.57
2019-02-26T09:07:37.551Z,24.03
2019-02-26T09:09:12.722Z,20.50
2019-02-26T09:10:48.656Z,22.67
2019-02-26T09:12:24.745Z,23.20
2019-02-26T09:14:03.969Z,21.13
2019-02-26T09:15:39.053Z,23.17
2019-02-26T09:17:18.722Z,21.53
2019-02-26T09:18:52.465Z,23.53
2019-02-26T09:20:27.244Z,23.60
2019-02-26T09:22:02.110Z,22.07
2019-02-26T09:23:39.748Z,26.87
2019-02-26T09:25:16.324Z,22.47
2019-02-26T09:26:52.078Z,26.13
2019-02-26T09:28:29.437Z,22.73
2019-02-26T09:30:08.463Z,23.13
2019-02-26T09:31:44.717Z,25.03
2019-02-26T09:33:20.125Z,24.30
2019-02-26T09:34:56.958Z,24.23
2019-02-26T09:36:32.896Z,22.93
2019-02-26T09:38:08.384Z,22.97
2019-02-26T09:39:45.296Z,24.03
2019-02-26T09:41:23.790Z,23.57
2019-02-26T09:43:00.292Z,25.60
2019-02-26T09:44:39.965Z,24.33
2019-02-26T09:46:16.912Z,21.77
2019-02-26T09:47:54.363Z,25.37
2019-02-26T09:49:30.890Z,22.03
2019-02-26T09:51:07.021Z,23.30
2019-02-26T09:52:42.045Z,24.10
2019-02-26T09:54:17.836Z,24.03
2019-02-26T09:55:53.632Z,23.50
2019-02-26T09:57:29.024Z,23.13
2019-02-26T09:59:05.137Z,24.97
2019-02-26T10:00:43.114Z,24.73
2019-02-26T10:02:20.117Z,27.93
2019-02-26T10:03:56.093Z,23.43
2019-02-26T10:05:32.376Z,23.03
2019-02-26T10:07:09.401Z,23.53
2019-02-26T10:08:46.003Z,23.63
2019-02-26T10:10:20.959Z,23.30
2019-02-26T10:11:56.108Z,23.93
2019-02-26T10:13:31.196Z,24.67
2019-02-26T10:15:07.332Z,22.83
2019-02-26T10:17:01.174Z,23.10
2019-02-26T10:18:36.240Z,22.43
2019-02-26T10:20:14.408Z,23.07
2019-02-26T10:21:49.432Z,24.27
2019-02-26T10:23:29.065Z,19.77
2019-02-26T10:25:05.772Z,23.30
2019-02-26T10:26:43.351Z,20.87
2019-02-26T10:28:21.006Z,21.60
2019-02-26T10:29:56.593Z,22.90
2019-02-26T10:31:33.602Z,24.73
2019-02-26T10:33:10.140Z,21.40
2019-02-26T10:34:44.978Z,21.37
2019-02-26T10:36:19.968Z,21.97
2019-02-26T10:37:57.065Z,24.60
2019-02-26T10:39:32.284Z,20.00
2019-02-26T10:41:07.196Z,22.07
2019-02-26T10:42:42.261Z,21.33
2019-02-26T10:44:17.114Z,22.80
2019-02-26T10:45:52.915Z,21.17
2019-02-26T10:47:29.908Z,22.07
2019-02-26T10:49:05.365Z,23.00
2019-02-26T10:50:42.617Z,23.53
2019-02-26T10:52:30.588Z,19.93
2019-02-26T10:54:12.175Z,19.87
2019-02-26T10:55:45.425Z,19.03
2019-02-26T10:57:26.976Z,19.67
2019-02-26T10:59:03.549Z,19.60
2019-02-26T11:00:38.568Z,22.37
2019-02-26T11:02:14.562Z,18.13
2019-02-26T11:03:52.859Z,17.77
2019-02-26T11:05:27.001Z,18.87
2019-02-26T11:07:04.961Z,16.00
2019-02-26T11:08:38.923Z,18.00
2019-02-26T11:10:14.596Z,17.10
2019-02-26T11:11:50.834Z,19.17
2019-02-26T11:13:25.987Z,17.37
2019-02-26T11:15:02.440Z,16.57
2019-02-26T11:16:39.075Z,15.03
2019-02-26T11:18:15.103Z,17.87
2019-02-26T11:19:55.552Z,14.50
2019-02-26T11:21:31.045Z,17.20
2019-02-26T11:23:08.946Z,17.13
2019-02-26T11:24:43.547Z,15.63
2019-02-26T11:26:18.924Z,14.40
2019-02-26T11:27:53.834Z,18.53
2019-02-26T11:29:30.467Z,18.00
2019-02-26T11:31:06.111Z,16.70
2019-02-26T11:32:42.268Z,16.43
2019-02-26T11:34:17.091Z,15.17
2019-02-26T11:35:52.384Z,17.33
2019-02-26T11:37:29.409Z,19.20
2019-02-26T11:39:06.813Z,19.73
2019-02-26T11:40:42.491Z,18.33
2019-02-26T11:42:18.653Z,15.65
2019-02-26T11:43:53.790Z,17.27
2019-02-26T11:45:28.637Z,17.13
2019-02-26T11:47:03.772Z,16.27
2019-02-26T11:48:38.673Z,15.83
2019-02-26T11:50:15.983Z,15.57
2019-02-26T11:51:51.291Z,16.97
2019-02-26T11:53:30.788Z,15.30
2019-02-26T11:55:08.557Z,14.47
2019-02-26T11:56:44.557Z,14.07
2019-02-26T11:58:22.344Z,16.67
2019-02-26T11:59:59.484Z,15.97
2019-02-26T12:01:34.465Z,15.07
2019-02-26T12:03:10.922Z,16.17
2019-02-26T12:04:46.050Z,13.97
2019-02-26T12:06:21.241Z,14.97
2019-02-26T12:07:56.834Z,15.83
2019-02-26T12:09:35.023Z,14.27
2019-02-26T12:11:12.556Z,12.27
2019-02-26T12:12:44.732Z,14.13
2019-02-26T12:14:21.567Z,13.27
2019-02-26T12:15:55.916Z,14.27
2019-02-26T12:17:31.022Z,13.57
2019-02-26T12:19:07.937Z,13.97
2019-02-26T12:20:43.491Z,14.20
2019-02-26T12:22:20.429Z,12.40
2019-02-26T12:23:57.916Z,14.53
2019-02-26T12:25:32.505Z,14.33
2019-02-26T12:27:09.739Z,15.40
2019-02-26T12:28:44.324Z,15.17
2019-02-26T12:30:20.757Z,10.90
2019-02-26T12:31:57.791Z,14.00
2019-02-26T12:33:32.658Z,13.67
2019-02-26T12:35:08.729Z,12.57
2019-02-26T12:36:44.598Z,13.40
2019-02-26T12:38:21.390Z,15.70
2019-02-26T12:39:57.865Z,16.17
2019-02-26T12:41:35.921Z,14.93
2019-02-26T12:43:11.770Z,14.23
2019-02-26T12:44:46.103Z,14.67
2019-02-26T12:46:21.744Z,13.80
2019-02-26T12:47:57.438Z,19.93
2019-02-26T12:49:34.988Z,1417.73
2019-02-26T12:51:09.317Z,1432.20
2019-02-26T12:52:45.439Z,893.03
2019-02-26T12:54:20.916Z,442.33
2019-02-26T12:55:56.633Z,149.73
2019-02-26T12:57:32.931Z,468.60
2019-02-26T12:59:07.811Z,175.53
2019-02-26T13:00:42.629Z,31.53
2019-02-26T13:02:20.641Z,20.53
2019-02-26T13:03:55.117Z,15.93
2019-02-26T13:05:30.317Z,17.33
2019-02-26T13:07:08.384Z,22.33
2019-02-26T13:08:42.708Z,14.43
2019-02-26T13:10:22.205Z,12.97
2019-02-26T13:12:02.469Z,15.40
2019-02-26T13:13:34.142Z,11.80
2019-02-26T13:15:12.441Z,16.57
2019-02-26T13:16:48.863Z,12.53
2019-02-26T13:18:24.263Z,11.77
2019-02-26T13:20:01.677Z,11.23
2019-02-26T13:21:35.572Z,12.10
2019-02-26T13:23:20.580Z,11.57
2019-02-26T13:24:46.932Z,11.57
2019-02-26T13:26:22.685Z,15.97
2019-02-26T13:27:57.464Z,12.63
2019-02-26T13:29:32.750Z,11.37
2019-02-26T13:31:08.770Z,11.77
2019-02-26T13:32:56.348Z,15.47
2019-02-26T13:34:20.592Z,14.00
2019-02-26T13:35:58.792Z,12.27
2019-02-26T13:37:35.546Z,15.07
2019-02-26T13:39:09.573Z,12.63
2019-02-26T13:40:44.355Z,15.90
2019-02-26T13:42:19.723Z,12.60
2019-02-26T13:43:54.653Z,13.90
2019-02-26T13:45:29.974Z,13.27
2019-02-26T13:47:05.002Z,11.90
2019-02-26T13:48:39.797Z,12.47
2019-02-26T13:50:24.381Z,13.73
2019-02-26T13:51:59.176Z,11.13
2019-02-26T13:53:34.227Z,13.87
2019-02-26T13:55:10.597Z,14.03
2019-02-26T13:56:45.645Z,13.67
2019-02-26T13:58:20.541Z,13.27
2019-02-26T13:59:55.595Z,13.00
2019-02-26T14:01:30.756Z,13.50
2019-02-26T14:03:06.167Z,13.57
2019-02-26T14:04:40.933Z,14.87
2019-02-26T14:06:15.905Z,14.63
2019-02-26T14:07:51.353Z,13.33
2019-02-26T14:09:26.373Z,12.30
2019-02-26T14:11:01.175Z,13.07
2019-02-26T14:12:36.796Z,13.53
2019-02-26T14:14:11.690Z,14.33
2019-02-26T14:15:46.549Z,13.83
2019-02-26T14:17:21.360Z,13.33
2019-02-26T14:18:56.453Z,13.40
2019-02-26T14:20:31.325Z,13.83
2019-02-26T14:22:06.411Z,13.67
2019-02-26T14:23:41.801Z,14.57
2019-02-26T14:25:16.730Z,14.70
2019-02-26T14:26:51.563Z,14.07
2019-02-26T14:28:26.633Z,14.40
2019-02-26T14:30:01.419Z,15.27
2019-02-26T14:31:36.985Z,12.53
2019-02-26T14:33:11.810Z,14.40
2019-02-26T14:34:46.847Z,14.37
2019-02-26T14:36:21.644Z,15.03
2019-02-26T14:37:56.431Z,13.20
2019-02-26T14:39:31.254Z,14.07
2019-02-26T14:41:06.067Z,15.60
2019-02-26T14:42:41.099Z,14.07
2019-02-26T14:44:15.892Z,13.00
2019-02-26T14:45:51.091Z,12.60
2019-02-26T14:47:25.949Z,13.40
2019-02-26T14:49:01.203Z,13.80
2019-02-26T14:52:34.067Z,14.20
2019-02-26T14:54:08.959Z,12.63
2019-02-26T14:55:43.796Z,14.33
2019-02-26T14:57:18.811Z,14.93
2019-02-26T14:58:55.261Z,25.10
2019-02-26T15:00:30.266Z,22.60
2019-02-26T15:02:05.138Z,17.77
2019-02-26T15:03:40.508Z,18.63
2019-02-26T15:05:16.215Z,14.77
2019-02-26T15:06:50.990Z,14.13
2019-02-26T15:08:26.037Z,14.00
2019-02-26T15:10:01.451Z,15.80
2019-02-26T15:11:36.263Z,15.83
2019-02-26T15:13:12.467Z,14.80
2019-02-26T15:14:48.816Z,14.30
2019-02-26T15:16:23.811Z,16.93
2019-02-26T15:17:58.602Z,12.83
2019-02-26T15:19:33.446Z,14.63
2019-02-26T15:21:08.541Z,15.33
2019-02-26T15:22:43.365Z,16.00
2019-02-26T15:24:18.656Z,15.37
2019-02-26T15:25:53.492Z,16.13
2019-02-26T15:27:35.935Z,15.23
2019-02-26T15:29:04.922Z,16.93
2019-02-26T15:30:39.692Z,14.20
2019-02-26T15:32:14.908Z,14.87
2019-02-26T15:33:50.434Z,15.53
2019-02-26T15:35:25.753Z,15.37
2019-02-26T15:37:00.878Z,14.87
2019-02-26T15:38:35.681Z,15.87
2019-02-26T15:40:12.165Z,15.57
2019-02-26T15:41:48.279Z,17.47
2019-02-26T15:43:24.520Z,16.23
2019-02-26T15:45:00.376Z,15.30
2019-02-26T15:46:35.627Z,17.20
2019-02-26T15:49:13.874Z,15.53
2019-02-26T15:50:49.475Z,16.50
2019-02-26T15:52:24.079Z,15.67
2019-02-26T15:53:59.527Z,17.57
2019-02-26T15:55:34.749Z,15.67
2019-02-26T15:57:10.134Z,16.80
2019-02-26T15:58:45.001Z,15.20
2019-02-26T16:00:21.233Z,16.57
2019-02-26T16:01:56.083Z,17.30
2019-02-26T16:03:30.954Z,15.43
2019-02-26T16:05:06.772Z,16.73
2019-02-26T16:06:41.862Z,16.57
2019-02-26T16:08:16.870Z,15.20
2019-02-26T16:09:51.385Z,17.97
2019-02-26T16:11:25.901Z,18.33
2019-02-26T16:13:04.320Z,17.30
2019-02-26T16:14:38.818Z,16.90
2019-02-26T16:16:13.468Z,18.27
2019-02-26T16:17:48.457Z,19.70
2019-02-26T16:19:23.098Z,20.23
2019-02-26T16:20:58.170Z,18.63
2019-02-26T16:22:33.057Z,18.03
2019-02-26T16:24:08.165Z,18.53
2019-02-26T16:25:43.190Z,19.63
2019-02-26T16:27:19.833Z,20.40
2019-02-26T16:28:56.411Z,16.80
2019-02-26T16:30:31.499Z,17.07
2019-02-26T16:32:06.291Z,17.43
2019-02-26T16:33:41.126Z,18.87
2019-02-26T16:35:16.479Z,15.53
2019-02-26T16:36:51.528Z,17.03
2019-02-26T16:38:26.563Z,17.10
2019-02-26T16:40:01.394Z,15.03
2019-02-26T16:41:38.321Z,16.13
2019-02-26T16:43:14.801Z,18.33
2019-02-26T16:44:49.834Z,15.57
2019-02-26T16:46:25.217Z,15.87
2019-02-26T16:48:00.325Z,14.77
2019-02-26T16:49:35.880Z,15.93
2019-02-26T16:51:10.743Z,19.00
2019-02-26T16:52:45.628Z,21.57
2019-02-26T16:54:20.743Z,19.73
2019-02-26T16:55:56.236Z,18.53
2019-02-26T16:57:31.279Z,17.20
2019-02-26T16:59:07.837Z,17.73
2019-02-26T17:00:43.094Z,21.20
2019-02-26T17:02:18.146Z,21.10
2019-02-26T17:03:52.944Z,16.47
2019-02-26T17:05:27.780Z,17.17
2019-02-26T17:07:03.086Z,21.30
2019-02-26T17:08:37.984Z,21.07
2019-02-26T17:10:15.443Z,16.90
2019-02-26T17:11:50.361Z,19.20
2019-02-26T17:13:25.386Z,15.93
2019-02-26T17:15:00.746Z,18.87
2019-02-26T17:16:35.772Z,17.10
2019-02-26T17:18:10.739Z,18.97
2019-02-26T17:19:48.360Z,16.43
2019-02-26T17:21:22.397Z,17.77
2019-02-26T17:22:57.178Z,15.53
2019-02-26T17:24:32.243Z,16.80
2019-02-26T17:26:07.036Z,15.37
2019-02-26T17:27:42.142Z,16.60
2019-02-26T17:29:17.512Z,17.27
2019-02-26T17:30:53.263Z,18.47
2019-02-26T17:32:28.049Z,19.57
2019-02-26T17:34:02.840Z,22.30
2019-02-26T17:35:37.627Z,20.40
2019-02-26T17:37:12.445Z,20.47
2019-02-26T17:38:51.470Z,19.47
2019-02-26T17:40:23.903Z,23.70
2019-02-26T17:41:58.684Z,29.43
2019-02-26T17:43:34.353Z,28.40
2019-02-26T17:45:12.465Z,23.43
2019-02-26T17:46:47.577Z,20.47
2019-02-26T17:48:22.440Z,20.10
2019-02-26T17:49:57.246Z,19.23
2019-02-26T17:51:32.354Z,20.63
2019-02-26T17:53:07.692Z,17.90
2019-02-26T17:54:42.477Z,19.53
2019-02-26T17:56:17.295Z,19.00
2019-02-26T17:57:52.166Z,18.67
2019-02-26T17:59:26.990Z,18.97
2019-02-26T18:01:01.790Z,21.67
2019-02-26T18:02:37.253Z,18.03
2019-02-26T18:04:12.369Z,17.57
2019-02-26T18:05:51.219Z,17.43
2019-02-26T18:07:23.186Z,19.50
2019-02-26T18:08:57.614Z,19.35
2019-02-26T18:10:31.981Z,18.07
2019-02-26T18:12:06.353Z,19.10
2019-02-26T18:13:40.727Z,19.27
2019-02-26T18:15:17.622Z,18.33
2019-02-26T18:16:51.957Z,17.75
2019-02-26T18:18:26.654Z,18.82
2019-02-26T18:20:01.416Z,18.23
2019-02-26T18:21:36.634Z,17.48
2019-02-26T18:23:13.211Z,15.23
2019-02-26T18:24:51.086Z,16.80
2019-02-26T18:26:26.115Z,21.42
2019-02-26T18:28:01.016Z,17.07
2019-02-26T18:29:36.199Z,16.75
2019-02-26T18:31:11.045Z,19.48
2019-02-26T18:32:50.293Z,17.05
2019-02-26T18:34:23.226Z,17.30
2019-02-26T18:35:59.340Z,15.72
2019-02-26T18:37:34.236Z,17.65
2019-02-26T18:39:11.202Z,18.10
2019-02-26T18:40:45.614Z,16.17
2019-02-26T18:42:20.377Z,14.25
2019-02-26T18:43:54.504Z,16.30
2019-02-26T18:45:29.143Z,16.02
2019-02-26T18:47:04.819Z,16.32
2019-02-26T18:48:40.304Z,18.15
2019-02-26T18:50:15.100Z,18.20
2019-02-26T18:51:49.853Z,17.42
2019-02-26T18:53:24.352Z,18.60
2019-02-26T18:54:59.051Z,18.15
2019-02-26T18:56:36.656Z,18.60
2019-02-26T18:58:09.500Z,18.07
2019-02-26T18:59:43.911Z,18.23
2019-02-26T19:01:18.261Z,20.00
2019-02-26T19:02:52.707Z,18.80
2019-02-26T19:04:27.328Z,18.20
2019-02-26T19:06:03.546Z,19.65
2019-02-26T19:07:38.141Z,19.37
2019-02-26T19:09:12.889Z,19.35
2019-02-26T19:10:47.509Z,19.07
2019-02-26T19:12:22.310Z,17.45
2019-02-26T19:13:56.677Z,20.12
2019-02-26T19:15:33.413Z,18.17
2019-02-26T19:17:07.768Z,18.67
2019-02-26T19:18:42.231Z,19.55
2019-02-26T19:20:17.695Z,21.20
2019-02-26T19:21:54.110Z,18.62
2019-02-26T19:23:31.417Z,18.12
2019-02-26T19:25:06.883Z,18.00
2019-02-26T19:26:41.797Z,17.50
2019-02-26T19:28:16.478Z,19.90
2019-02-26T19:29:51.203Z,19.98
2019-02-26T19:31:25.660Z,19.42
2019-02-26T19:33:00.029Z,17.00
2019-02-26T19:34:34.403Z,18.80
2019-02-26T19:36:10.642Z,19.02
2019-02-26T19:37:45.068Z,18.45
2019-02-26T19:39:19.737Z,20.23
2019-02-26T19:40:54.214Z,21.97
2019-02-26T19:42:28.865Z,18.75
2019-02-26T19:44:03.236Z,22.25
2019-02-26T19:45:38.200Z,21.33
2019-02-26T19:47:14.283Z,18.02
2019-02-26T19:48:49.087Z,19.80
2019-02-26T19:50:23.906Z,20.62
2019-02-26T19:51:58.285Z,17.55
2019-02-26T19:53:34.640Z,22.10
2019-02-26T19:55:12.921Z,22.27
2019-02-26T19:56:48.562Z,19.87
2019-02-26T19:58:22.938Z,22.07
2019-02-26T19:59:57.595Z,19.62
2019-02-26T20:01:31.975Z,19.85
2019-02-26T20:03:06.895Z,20.92
2019-02-26T20:04:44.046Z,19.25
2019-02-26T20:06:18.851Z,18.67
2019-02-26T20:07:55.169Z,21.10
2019-02-26T20:09:29.878Z,18.92
2019-02-26T20:11:04.668Z,20.68
2019-02-26T20:12:39.277Z,21.45
2019-02-26T20:14:15.866Z,24.60
2019-02-26T20:15:54.691Z,22.60
2019-02-26T20:17:26.880Z,21.17
2019-02-26T20:19:01.581Z,21.68
2019-02-26T20:20:40.849Z,23.07
2019-02-26T20:22:12.687Z,23.67
2019-02-26T20:23:47.454Z,25.45
2019-02-26T20:25:21.822Z,22.90
2019-02-26T20:26:56.522Z,23.52
2019-02-26T20:28:35.264Z,23.65
2019-02-26T20:30:09.583Z,23.87
2019-02-26T20:31:45.181Z,21.95
2019-02-26T20:33:19.554Z,25.12
2019-02-26T20:34:53.918Z,22.73
2019-02-26T20:36:28.330Z,23.18
2019-02-26T20:38:03.033Z,24.40
2019-02-26T20:39:40.646Z,22.50
2019-02-26T20:41:13.849Z,22.32
2019-02-26T20:42:48.529Z,24.75
2019-02-26T20:44:22.985Z,22.48
2019-02-26T20:45:57.681Z,25.10
2019-02-26T20:47:32.287Z,22.42
2019-02-26T20:49:07.101Z,25.27
2019-02-26T20:50:41.494Z,24.47
2019-02-26T20:52:15.950Z,22.35
2019-02-26T20:53:50.319Z,23.05
2019-02-26T20:55:24.805Z,29.07
2019-02-26T20:57:03.733Z,25.57
2019-02-26T20:58:35.951Z,26.42
2019-02-26T21:00:16.397Z,23.45
2019-02-26T21:01:50.752Z,21.60
2019-02-26T21:03:25.455Z,23.42
2019-02-26T21:05:00.247Z,27.07
2019-02-26T21:06:34.998Z,24.70
2019-02-26T21:08:09.939Z,25.50
2019-02-26T21:09:44.849Z,23.70
2019-02-26T21:11:22.459Z,24.23
2019-02-26T21:12:55.303Z,26.37
2019-02-26T21:14:29.691Z,24.45
2019-02-26T21:16:04.092Z,22.67
2019-02-26T21:17:38.847Z,20.77
2019-02-26T21:19:13.505Z,27.60
2019-02-26T21:20:49.273Z,27.55
2019-02-26T21:22:24.130Z,25.72
2019-02-26T21:24:00.398Z,25.90
2019-02-26T21:25:34.606Z,27.65
2019-02-26T21:27:09.077Z,27.70
2019-02-26T21:28:43.724Z,24.95
2019-02-26T21:30:18.494Z,27.32
2019-02-26T21:31:53.171Z,23.73
2019-02-26T21:33:30.570Z,27.27
2019-02-26T21:35:04.072Z,28.12
2019-02-26T21:36:38.462Z,26.90
2019-02-26T21:38:13.238Z,26.25
2019-02-26T21:39:47.680Z,27.45
2019-02-26T21:41:23.405Z,29.18
2019-02-26T21:43:01.579Z,25.92
2019-02-26T21:44:34.266Z,25.80
2019-02-26T21:46:08.638Z,26.93
2019-02-26T21:47:43.010Z,28.77
2019-02-26T21:49:17.366Z,23.77
2019-02-26T21:50:54.704Z,25.32
2019-02-26T21:52:28.433Z,24.67
2019-02-26T21:54:03.043Z,28.00
2019-02-26T21:55:44.362Z,26.45
2019-02-26T21:57:13.565Z,24.75
2019-02-26T21:58:48.176Z,27.48
2019-02-26T22:00:22.851Z,25.30
2019-02-26T22:01:57.277Z,23.55
2019-02-26T22:03:32.304Z,28.60
2019-02-26T22:05:08.147Z,27.27
2019-02-26T22:06:44.855Z,25.92
2019-02-26T22:08:19.191Z,25.17
2019-02-26T22:09:53.562Z,26.68
2019-02-26T22:11:27.944Z,26.62
2019-02-26T22:13:02.394Z,26.95
2019-02-26T22:14:37.555Z,29.65
2019-02-26T22:16:12.244Z,29.48
2019-02-26T22:17:47.062Z,30.90
2019-02-26T22:19:21.857Z,30.02
2019-02-26T22:20:56.574Z,31.90
2019-02-26T22:22:31.010Z,30.88